Bucharest Aurel Vlaicu Airport

Current Flights

Departures
Number Departure To Airline
Arrivals
Number Arrival From Airline
 OY700 07:47  Washington  Omni Air International
Info
Name: Bucharest Aurel Vlaicu Airport
Identifier:  BBU/LRBS
Local Time:  20. May 19:37
City
Bucharest
  Romania

Flights per Day
0 flights
Distance: 2,276km (1,414mi)
Punctuality
75% (0 flights per day delayed)
Delay Average: 389 minutes
Current Weather
 16 C (Humidity: 87%)
  4kt (7km/h / 4mph) from 280°
  Few clouds at 5,000 feet (1,524 meter)
  9km (6 mi.)
 METAR LRBS 201900Z 28004KT 240V350 9999 FEW050CB 16/14 Q1008 R07/29//95 BECMG NSC

Current Delays

Departures
N/A
Arrivals
N/A

Destinations

Top Destinations
Airport Flights
per week
Seats
per week
  Bucharest (OTP) <1 322 0 46
  Chisinau (KIV) <1 - 0 0
  Tel Aviv (TLV) <1 28 0 4

Airlines & Planes

Top Airlines
Airline Flights
per Day
Seats
per Day
  Blue Air <1 46
  TAROM <1 17
  Arkia - Israeli Airlines <1 4
Top Plane Types
Manufacturer Model Flights Seats
Boeing B737-800 0.3/day 37/day 37.7
Boeing B737-400 0.1/day 10/day 10.4
Boeing B737-700 0.0/day 3/day 3.8666666666666667